Time;durP1;ratioP1;P1;durP2;ratioP2;P2;SDS_P1;SDS_P2;PMS_P1;PMS_P2;Temp;Humidity;BMP_temperature;BMP_pressure;BME280_temperature;BME280_humidity;BME280_pressure;Samples;Min_cycle;Max_cycle;Signal;HPM_P1;HPM_P2
2023/12/16 00:00:08;;;;;;;17.93;12.07;;;;;;;;;;5052595;28;20234;-84
2023/12/16 00:02:38;;;;;;;14.53;9.17;;;;;;;;;;5052847;28;20260;-84
2023/12/16 00:05:06;;;;;;;14.57;9.57;;;;;;;;;;5052485;28;20206;-84
2023/12/16 00:07:33;;;;;;;14.27;9.73;;;;;;;;;;5052672;28;20222;-84
2023/12/16 00:10:00;;;;;;;11.67;8.37;;;;;;;;;;5052923;28;20228;-83
2023/12/16 00:12:28;;;;;;;14.07;8.57;;;;;;;;;;5051902;28;20236;-84
2023/12/16 00:14:55;;;;;;;12.50;7.90;;;;;;;;;;5052913;28;20240;-84
2023/12/16 00:17:23;;;;;;;15.20;9.23;;;;;;;;;;5051954;28;20238;-84
2023/12/16 00:19:50;;;;;;;14.37;9.50;;;;;;;;;;5052166;28;20592;-84
2023/12/16 00:22:17;;;;;;;11.43;8.23;;;;;;;;;;5051801;28;20233;-84
2023/12/16 00:24:44;;;;;;;15.37;8.73;;;;;;;;;;5052167;28;20681;-84
2023/12/16 00:27:11;;;;;;;12.63;8.30;;;;;;;;;;5051141;28;20230;-84
2023/12/16 00:29:40;;;;;;;11.03;8.60;;;;;;;;;;5052611;28;20628;-84
2023/12/16 00:32:07;;;;;;;11.80;8.43;;;;;;;;;;5051674;28;20258;-84
2023/12/16 00:34:34;;;;;;;12.03;8.17;;;;;;;;;;5052370;28;20206;-84
2023/12/16 00:37:05;;;;;;;12.07;8.37;;;;;;;;;;5051632;28;20294;-84
2023/12/16 00:39:32;;;;;;;15.10;10.50;;;;;;;;;;5052248;28;20198;-84
2023/12/16 00:41:59;;;;;;;17.50;11.43;;;;;;;;;;5051391;28;20238;-84
2023/12/16 00:44:26;;;;;;;18.43;12.33;;;;;;;;;;5052263;28;20205;-84
2023/12/16 00:46:54;;;;;;;15.83;9.63;;;;;;;;;;5051490;28;20234;-84
2023/12/16 00:49:21;;;;;;;16.23;10.07;;;;;;;;;;5052273;28;20615;-84
2023/12/16 00:51:48;;;;;;;14.03;10.50;;;;;;;;;;5051305;28;20233;-84
2023/12/16 00:54:15;;;;;;;14.87;8.43;;;;;;;;;;5051820;28;20232;-84
2023/12/16 00:56:42;;;;;;;14.27;8.60;;;;;;;;;;5051459;28;20238;-84
2023/12/16 00:59:09;;;;;;;12.40;8.47;;;;;;;;;;5052029;28;20236;-84
2023/12/16 01:01:36;;;;;;;17.70;9.20;;;;;;;;;;5051105;28;20245;-84
2023/12/16 01:04:05;;;;;;;17.77;9.07;;;;;;;;;;5051727;28;20236;-84
2023/12/16 01:06:32;;;;;;;17.10;9.33;;;;;;;;;;5051382;28;20230;-84
2023/12/16 01:08:59;;;;;;;13.70;8.90;;;;;;;;;;5051904;28;20273;-84
2023/12/16 01:11:26;;;;;;;13.90;9.20;;;;;;;;;;5051235;28;20287;-84
2023/12/16 01:13:53;;;;;;;12.60;9.13;;;;;;;;;;5051558;28;20210;-84
2023/12/16 01:16:20;;;;;;;14.10;8.87;;;;;;;;;;5051299;28;20234;-84
2023/12/16 01:18:47;;;;;;;14.60;9.27;;;;;;;;;;5051967;28;20656;-84
2023/12/16 01:21:17;;;;;;;13.10;8.63;;;;;;;;;;5051047;28;20291;-84
2023/12/16 01:23:44;;;;;;;12.07;9.00;;;;;;;;;;5051916;28;20205;-84
2023/12/16 01:26:11;;;;;;;13.23;8.90;;;;;;;;;;5051322;28;20268;-84
2023/12/16 01:28:39;;;;;;;12.30;8.37;;;;;;;;;;5051812;28;20271;-84
2023/12/16 01:31:06;;;;;;;12.67;8.20;;;;;;;;;;5051123;28;20237;-84
2023/12/16 01:33:34;;;;;;;16.03;9.10;;;;;;;;;;5051711;28;20205;-84
2023/12/16 01:36:01;;;;;;;18.87;9.50;;;;;;;;;;5051146;28;20234;-84
2023/12/16 01:38:29;;;;;;;15.13;9.07;;;;;;;;;;5053573;28;20225;-84
2023/12/16 01:40:56;;;;;;;18.47;9.80;;;;;;;;;;5055045;28;20299;-84
2023/12/16 01:43:23;;;;;;;15.80;10.27;;;;;;;;;;5055659;28;20209;-85
2023/12/16 01:45:52;;;;;;;16.53;10.27;;;;;;;;;;5054934;28;20233;-83
2023/12/16 01:48:20;;;;;;;17.50;10.53;;;;;;;;;;5055524;28;20240;-84
2023/12/16 01:50:47;;;;;;;17.97;10.30;;;;;;;;;;5054841;28;20230;-84
2023/12/16 01:53:14;;;;;;;12.93;8.47;;;;;;;;;;5055122;28;20576;-84
2023/12/16 01:55:42;;;;;;;14.40;8.23;;;;;;;;;;5054937;28;20284;-84
2023/12/16 01:58:10;;;;;;;13.20;8.60;;;;;;;;;;5055302;28;20283;-84
2023/12/16 02:00:37;;;;;;;12.87;7.97;;;;;;;;;;5054682;28;20245;-84
2023/12/16 02:03:04;;;;;;;11.73;8.00;;;;;;;;;;5055279;28;20214;-84
2023/12/16 02:05:31;;;;;;;14.67;7.87;;;;;;;;;;5054287;28;20242;-84
2023/12/16 02:07:58;;;;;;;13.67;8.00;;;;;;;;;;5050572;28;20222;-84
2023/12/16 02:10:25;;;;;;;14.13;7.30;;;;;;;;;;5065715;28;20240;-83
2023/12/16 02:12:54;;;;;;;10.60;7.10;;;;;;;;;;5054836;28;20229;-84
2023/12/16 02:15:21;;;;;;;14.17;8.47;;;;;;;;;;5054465;28;20209;-84
2023/12/16 02:17:48;;;;;;;11.53;7.90;;;;;;;;;;5054969;28;20309;-84
2023/12/16 02:20:15;;;;;;;13.10;7.90;;;;;;;;;;5054073;28;20715;-85
2023/12/16 02:22:42;;;;;;;13.30;8.90;;;;;;;;;;5054563;28;20281;-84
2023/12/16 02:25:11;;;;;;;10.30;7.60;;;;;;;;;;5054476;28;20761;-84
2023/12/16 02:27:38;;;;;;;16.30;8.33;;;;;;;;;;5054768;28;20257;-84
2023/12/16 02:30:06;;;;;;;11.60;7.63;;;;;;;;;;5054257;28;20205;-85
2023/12/16 02:32:33;;;;;;;10.07;8.03;;;;;;;;;;5054751;28;20206;-84
2023/12/16 02:35:00;;;;;;;12.70;7.40;;;;;;;;;;5054771;28;20202;-84
2023/12/16 02:37:27;;;;;;;12.37;8.10;;;;;;;;;;5053783;28;20230;-84
2023/12/16 02:39:54;;;;;;;12.17;9.03;;;;;;;;;;5054712;28;20209;-83
2023/12/16 02:42:22;;;;;;;13.67;8.97;;;;;;;;;;5053742;28;20238;-84
2023/12/16 02:44:49;;;;;;;13.57;8.47;;;;;;;;;;5054598;28;20213;-84
2023/12/16 02:47:16;;;;;;;12.63;7.87;;;;;;;;;;5053594;28;20317;-84
2023/12/16 02:49:44;;;;;;;15.37;8.30;;;;;;;;;;5053899;28;20255;-84
2023/12/16 02:52:11;;;;;;;13.67;8.20;;;;;;;;;;5053699;28;20283;-83
2023/12/16 02:54:38;;;;;;;15.53;9.30;;;;;;;;;;5054316;28;20260;-84
2023/12/16 02:57:06;;;;;;;10.60;8.10;;;;;;;;;;5053578;28;20708;-84
2023/12/16 02:59:34;;;;;;;9.83;8.20;;;;;;;;;;5054158;28;20213;-84
2023/12/16 03:02:01;;;;;;;12.00;7.57;;;;;;;;;;5053320;28;20351;-84
2023/12/16 03:04:28;;;;;;;9.67;7.03;;;;;;;;;;5054179;28;20289;-83
2023/12/16 03:06:55;;;;;;;10.43;7.10;;;;;;;;;;5053270;28;20742;-84
2023/12/16 03:09:22;;;;;;;8.23;6.77;;;;;;;;;;5053860;28;20584;-83
2023/12/16 03:11:50;;;;;;;13.47;6.50;;;;;;;;;;5053061;28;20233;-83
2023/12/16 03:14:17;;;;;;;11.33;7.10;;;;;;;;;;5053547;28;20256;-84
2023/12/16 03:16:45;;;;;;;12.30;7.77;;;;;;;;;;5053427;28;20234;-82
2023/12/16 03:19:12;;;;;;;11.93;7.47;;;;;;;;;;5034288;28;20215;-83
2023/12/16 03:21:39;;;;;;;11.93;7.37;;;;;;;;;;5033769;28;20234;-83
2023/12/16 03:24:07;;;;;;;9.20;6.30;;;;;;;;;;5033746;28;20256;-84
2023/12/16 03:26:34;;;;;;;14.10;7.10;;;;;;;;;;5033055;28;20701;-84
2023/12/16 03:29:01;;;;;;;11.17;6.77;;;;;;;;;;5033753;28;20226;-84
2023/12/16 03:31:28;;;;;;;10.33;6.80;;;;;;;;;;5032911;28;20285;-84
2023/12/16 03:33:56;;;;;;;7.73;6.07;;;;;;;;;;5033795;28;20207;-83
2023/12/16 03:36:23;;;;;;;12.10;6.37;;;;;;;;;;5044827;28;20234;-84
2023/12/16 03:38:50;;;;;;;9.80;5.83;;;;;;;;;;5053432;28;20622;-84
2023/12/16 03:41:17;;;;;;;8.17;6.23;;;;;;;;;;5052650;28;20230;-84
2023/12/16 03:43:44;;;;;;;10.13;7.10;;;;;;;;;;5053377;28;20276;-84
2023/12/16 03:46:11;;;;;;;9.80;6.17;;;;;;;;;;5052674;28;20237;-84
2023/12/16 03:48:38;;;;;;;9.47;6.50;;;;;;;;;;5052995;28;20230;-84
2023/12/16 03:51:07;;;;;;;9.27;6.37;;;;;;;;;;5052588;28;20234;-84
2023/12/16 03:53:34;;;;;;;9.70;6.10;;;;;;;;;;5052867;28;20205;-84
2023/12/16 03:56:01;;;;;;;7.87;6.17;;;;;;;;;;5052831;28;20238;-84
2023/12/16 03:58:28;;;;;;;5.50;3.70;;;;;;;;;;5052743;28;20229;-84
2023/12/16 04:00:55;;;;;;;7.03;5.80;;;;;;;;;;5051449;28;20237;-84
2023/12/16 04:03:22;;;;;;;8.97;5.43;;;;;;;;;;5053016;28;20252;-84
2023/12/16 04:05:49;;;;;;;6.10;5.50;;;;;;;;;;5052341;28;20260;-84
2023/12/16 04:08:17;;;;;;;11.50;7.03;;;;;;;;;;5052495;28;20601;-84
2023/12/16 04:10:44;;;;;;;9.20;6.53;;;;;;;;;;5052386;28;20234;-84
2023/12/16 04:13:12;;;;;;;9.40;6.10;;;;;;;;;;5052539;28;20222;-84
2023/12/16 04:15:39;;;;;;;11.53;5.93;;;;;;;;;;5052152;28;20241;-84
2023/12/16 04:18:06;;;;;;;7.53;5.87;;;;;;;;;;5052680;28;20230;-84
2023/12/16 04:20:33;;;;;;;9.43;6.33;;;;;;;;;;5052127;28;20303;-84
2023/12/16 04:23:01;;;;;;;10.83;5.87;;;;;;;;;;5052467;28;20230;-84
2023/12/16 04:25:29;;;;;;;8.63;5.83;;;;;;;;;;5051752;28;20700;-84
2023/12/16 04:27:56;;;;;;;8.43;6.60;;;;;;;;;;5052457;28;20233;-84
2023/12/16 04:30:23;;;;;;;14.07;5.70;;;;;;;;;;5051882;28;20582;-85
2023/12/16 04:32:50;;;;;;;13.43;7.23;;;;;;;;;;5052278;28;20259;-84
2023/12/16 04:35:17;;;;;;;7.27;6.20;;;;;;;;;;5051878;28;20631;-84
2023/12/16 04:37:44;;;;;;;11.30;6.50;;;;;;;;;;5052199;28;20222;-84
2023/12/16 04:40:11;;;;;;;6.90;5.33;;;;;;;;;;5051650;28;20692;-84
2023/12/16 04:42:42;;;;;;;6.80;5.50;;;;;;;;;;5052005;28;20301;-84
2023/12/16 04:45:09;;;;;;;7.67;5.27;;;;;;;;;;5051837;28;20186;-84
2023/12/16 04:47:37;;;;;;;7.17;5.97;;;;;;;;;;5052009;28;20233;-84
2023/12/16 04:50:04;;;;;;;13.07;5.97;;;;;;;;;;5051781;28;20292;-85
2023/12/16 04:52:31;;;;;;;11.93;5.57;;;;;;;;;;5051707;28;20240;-84
2023/12/16 04:54:58;;;;;;;9.40;5.20;;;;;;;;;;5051622;28;20201;-84
2023/12/16 04:57:25;;;;;;;9.87;5.13;;;;;;;;;;5050998;28;20240;-84
2023/12/16 04:59:54;;;;;;;11.43;5.63;;;;;;;;;;5052065;28;20217;-84
2023/12/16 05:02:20;;;;;;;10.43;4.80;;;;;;;;;;5051040;28;20651;-84
2023/12/16 05:04:47;;;;;;;12.53;7.30;;;;;;;;;;5051981;28;20202;-84
2023/12/16 05:07:14;;;;;;;7.17;5.17;;;;;;;;;;5051288;28;20781;-84
2023/12/16 05:09:41;;;;;;;8.63;4.97;;;;;;;;;;5052049;28;20214;-83
2023/12/16 05:12:09;;;;;;;8.30;5.87;;;;;;;;;;5050912;28;20648;-83
2023/12/16 05:14:36;;;;;;;8.83;5.20;;;;;;;;;;5051387;28;20214;-84
2023/12/16 05:17:04;;;;;;;11.23;5.87;;;;;;;;;;5051237;28;20264;-84
2023/12/16 05:19:31;;;;;;;9.20;5.77;;;;;;;;;;5051478;28;20715;-84
2023/12/16 05:21:58;;;;;;;13.47;6.80;;;;;;;;;;5050924;28;20230;-84
2023/12/16 05:24:25;;;;;;;13.07;6.60;;;;;;;;;;5052055;28;20238;-84
2023/12/16 05:26:52;;;;;;;85.43;41.57;;;;;;;;;;5051003;28;20229;-84
2023/12/16 05:29:19;;;;;;;25.07;12.37;;;;;;;;;;5051490;28;20209;-83
2023/12/16 05:31:46;;;;;;;7.37;6.43;;;;;;;;;;5050724;28;20233;-83
2023/12/16 05:34:14;;;;;;;8.47;6.97;;;;;;;;;;5051716;28;20209;-84
2023/12/16 05:36:41;;;;;;;7.50;5.57;;;;;;;;;;5050647;28;20643;-84
2023/12/16 05:39:09;;;;;;;7.73;6.13;;;;;;;;;;5051518;28;20205;-84
2023/12/16 05:41:36;;;;;;;19.10;11.07;;;;;;;;;;5050717;28;20229;-83
2023/12/16 05:44:03;;;;;;;13.03;7.83;;;;;;;;;;5051657;28;20268;-84
2023/12/16 05:46:30;;;;;;;23.73;14.77;;;;;;;;;;5051038;28;20588;-84
2023/12/16 05:48:57;;;;;;;10.47;7.20;;;;;;;;;;5051644;28;20229;-83
2023/12/16 05:51:26;;;;;;;8.27;6.13;;;;;;;;;;5050792;28;20234;-83
2023/12/16 05:53:53;;;;;;;6.30;5.00;;;;;;;;;;5051147;28;20209;-83
2023/12/16 05:56:20;;;;;;;14.23;6.67;;;;;;;;;;5050800;28;20244;-83
2023/12/16 05:58:47;;;;;;;22.67;12.37;;;;;;;;;;5051229;28;20222;-84
2023/12/16 06:01:19;;;;;;;10.33;7.27;;;;;;;;;;5050763;28;20225;-84
2023/12/16 06:03:47;;;;;;;12.93;6.97;;;;;;;;;;5051364;28;20642;-84
2023/12/16 06:06:15;;;;;;;11.03;7.27;;;;;;;;;;5051052;28;20313;-83
2023/12/16 06:08:43;;;;;;;11.10;6.27;;;;;;;;;;5051036;28;20314;-84
2023/12/16 06:11:12;;;;;;;8.53;6.47;;;;;;;;;;5050762;28;20241;-84
2023/12/16 06:13:39;;;;;;;7.27;6.40;;;;;;;;;;5050843;28;20684;-84
2023/12/16 06:16:07;;;;;;;11.00;6.33;;;;;;;;;;5050728;28;20320;-84
2023/12/16 06:18:34;;;;;;;10.13;7.00;;;;;;;;;;5050839;28;20317;-82
2023/12/16 06:21:01;;;;;;;8.97;6.67;;;;;;;;;;5050507;28;20283;-83
2023/12/16 06:23:28;;;;;;;9.90;6.23;;;;;;;;;;5051699;28;20238;-83
2023/12/16 06:25:57;;;;;;;9.90;7.33;;;;;;;;;;5050350;28;20235;-83
2023/12/16 06:28:24;;;;;;;11.53;6.10;;;;;;;;;;5054144;28;20236;-83
2023/12/16 06:30:51;;;;;;;9.27;5.97;;;;;;;;;;5053612;28;20232;-83
2023/12/16 06:33:18;;;;;;;14.50;6.13;;;;;;;;;;5054207;28;20202;-82
2023/12/16 06:35:45;;;;;;;8.87;6.33;;;;;;;;;;5053575;28;20260;-81
2023/12/16 06:38:12;;;;;;;13.07;7.47;;;;;;;;;;5054054;28;20233;-80
2023/12/16 06:40:39;;;;;;;10.87;7.73;;;;;;;;;;5053092;28;20241;-81
2023/12/16 06:43:08;;;;;;;9.63;6.33;;;;;;;;;;5053554;28;20700;-82
2023/12/16 06:45:38;;;;;;;8.60;7.17;;;;;;;;;;5053655;28;20627;-81
2023/12/16 06:48:05;;;;;;;9.17;6.47;;;;;;;;;;5053937;28;20230;-81
2023/12/16 06:50:32;;;;;;;10.20;6.40;;;;;;;;;;5053331;28;20233;-81
2023/12/16 06:52:59;;;;;;;9.73;6.97;;;;;;;;;;5053989;28;20202;-81
2023/12/16 06:55:26;;;;;;;11.63;7.00;;;;;;;;;;5053434;28;20756;-81
2023/12/16 06:57:53;;;;;;;18.83;8.07;;;;;;;;;;5053699;28;20465;-81
2023/12/16 07:00:21;;;;;;;12.07;7.60;;;;;;;;;;5053132;28;20206;-81
2023/12/16 07:02:48;;;;;;;12.83;7.10;;;;;;;;;;5053708;28;20233;-80
2023/12/16 07:05:15;;;;;;;10.03;6.53;;;;;;;;;;5053364;28;20263;-80
2023/12/16 07:07:44;;;;;;;10.20;7.30;;;;;;;;;;5053551;28;20258;-81
2023/12/16 07:10:11;;;;;;;10.53;7.10;;;;;;;;;;5053227;28;20198;-81
2023/12/16 07:12:38;;;;;;;9.77;5.97;;;;;;;;;;5053320;28;20210;-81
2023/12/16 07:15:07;;;;;;;9.67;6.10;;;;;;;;;;5053030;28;20673;-80
2023/12/16 07:17:35;;;;;;;10.30;6.77;;;;;;;;;;5053734;28;20280;-81
2023/12/16 07:20:02;;;;;;;13.50;6.87;;;;;;;;;;5053467;28;20214;-81
2023/12/16 07:22:30;;;;;;;14.10;7.23;;;;;;;;;;5053084;28;20248;-81
2023/12/16 07:24:57;;;;;;;14.10;6.30;;;;;;;;;;5052956;28;20241;-80
2023/12/16 07:27:24;;;;;;;10.97;6.20;;;;;;;;;;5052625;28;20241;-80
2023/12/16 07:29:52;;;;;;;12.60;8.57;;;;;;;;;;5053344;28;20206;-79
2023/12/16 07:32:19;;;;;;;16.10;7.47;;;;;;;;;;5052923;28;20288;-80
2023/12/16 07:34:50;;;;;;;9.77;6.53;;;;;;;;;;5052895;28;20663;-80
2023/12/16 07:37:17;;;;;;;11.50;6.63;;;;;;;;;;5052634;28;20619;-82
2023/12/16 07:39:44;;;;;;;13.47;6.37;;;;;;;;;;5052779;28;20688;-81
2023/12/16 07:42:11;;;;;;;10.27;6.93;;;;;;;;;;5052257;28;20234;-80
2023/12/16 07:44:38;;;;;;;13.70;6.47;;;;;;;;;;5052579;28;20671;-82
2023/12/16 07:47:05;;;;;;;13.83;6.23;;;;;;;;;;5052451;28;20241;-81
2023/12/16 07:49:32;;;;;;;8.00;6.10;;;;;;;;;;5052733;28;20274;-81
2023/12/16 07:52:01;;;;;;;6.20;5.57;;;;;;;;;;5052265;28;20292;-81
2023/12/16 07:54:28;;;;;;;11.47;6.53;;;;;;;;;;5052944;28;20407;-82
2023/12/16 07:56:55;;;;;;;13.63;6.00;;;;;;;;;;5052491;28;20245;-81
2023/12/16 07:59:23;;;;;;;11.60;6.73;;;;;;;;;;5047184;28;20685;-81
2023/12/16 08:01:50;;;;;;;9.17;6.57;;;;;;;;;;5032936;28;20772;-80
2023/12/16 08:04:18;;;;;;;10.10;7.13;;;;;;;;;;5032604;28;20664;-80
2023/12/16 08:06:45;;;;;;;9.43;6.27;;;;;;;;;;5032374;28;20241;-82
2023/12/16 08:09:14;;;;;;;14.13;7.60;;;;;;;;;;5033045;28;21023;-82
2023/12/16 08:11:41;;;;;;;13.17;7.10;;;;;;;;;;5031877;28;20353;-81
2023/12/16 08:14:08;;;;;;;15.70;6.93;;;;;;;;;;5032512;28;20678;-81
2023/12/16 08:16:38;;;;;;;12.97;7.57;;;;;;;;;;5032083;28;20238;-81
2023/12/16 08:19:05;;;;;;;11.30;6.73;;;;;;;;;;5032813;28;20206;-81
2023/12/16 08:21:32;;;;;;;7.73;5.97;;;;;;;;;;5044747;28;20461;-82
2023/12/16 08:23:59;;;;;;;11.20;7.43;;;;;;;;;;5051795;28;20692;-80
2023/12/16 08:26:28;;;;;;;11.77;6.20;;;;;;;;;;5051754;28;20284;-80
2023/12/16 08:28:55;;;;;;;11.67;5.80;;;;;;;;;;5052258;28;20283;-80
2023/12/16 08:31:22;;;;;;;9.27;6.30;;;;;;;;;;5051531;28;20645;-80
2023/12/16 08:33:49;;;;;;;10.90;5.47;;;;;;;;;;5052242;28;20267;-81
2023/12/16 08:36:16;;;;;;;10.50;6.90;;;;;;;;;;5051692;28;20241;-81
2023/12/16 08:38:44;;;;;;;13.50;6.77;;;;;;;;;;5051940;28;20778;-81
2023/12/16 08:41:12;;;;;;;17.03;7.00;;;;;;;;;;5051512;28;20261;-80
2023/12/16 08:43:41;;;;;;;7.93;6.33;;;;;;;;;;5051380;28;20716;-81
2023/12/16 08:46:08;;;;;;;15.63;8.43;;;;;;;;;;5051133;28;20234;-80
2023/12/16 08:48:35;;;;;;;13.53;6.87;;;;;;;;;;5051737;28;20279;-80
2023/12/16 08:51:03;;;;;;;9.30;7.27;;;;;;;;;;5051337;28;20734;-82
2023/12/16 08:53:30;;;;;;;13.27;7.17;;;;;;;;;;5051580;28;20213;-81
2023/12/16 08:55:58;;;;;;;11.63;7.00;;;;;;;;;;5051586;28;20247;-81
2023/12/16 08:58:25;;;;;;;9.93;6.97;;;;;;;;;;5051937;28;20255;-81
2023/12/16 09:00:53;;;;;;;13.53;6.70;;;;;;;;;;5051328;28;20719;-81
2023/12/16 09:03:20;;;;;;;11.30;6.90;;;;;;;;;;5051242;28;20305;-81
2023/12/16 09:05:47;;;;;;;10.67;7.30;;;;;;;;;;5051479;28;20307;-81
2023/12/16 09:08:14;;;;;;;8.53;6.67;;;;;;;;;;5051634;28;20229;-81
2023/12/16 09:10:41;;;;;;;13.70;7.40;;;;;;;;;;5051217;28;20598;-81
2023/12/16 09:13:08;;;;;;;10.00;7.07;;;;;;;;;;5053084;28;20209;-82
2023/12/16 09:15:36;;;;;;;9.50;6.77;;;;;;;;;;5071333;28;20609;-81
2023/12/16 09:18:05;;;;;;;12.10;6.83;;;;;;;;;;5046949;28;20222;-81
2023/12/16 09:20:32;;;;;;;10.53;5.53;;;;;;;;;;5031480;28;20261;-81
2023/12/16 09:23:00;;;;;;;8.53;5.17;;;;;;;;;;5031609;28;20230;-81
2023/12/16 09:25:27;;;;;;;11.73;4.97;;;;;;;;;;5031148;28;20238;-81
2023/12/16 09:27:54;;;;;;;8.17;5.13;;;;;;;;;;5032078;28;20235;-80
2023/12/16 09:30:22;;;;;;;8.87;5.50;;;;;;;;;;5031829;28;20195;-80
2023/12/16 09:32:49;;;;;;;7.60;5.00;;;;;;;;;;5032649;28;20619;-83
2023/12/16 09:35:17;;;;;;;10.33;5.63;;;;;;;;;;5031826;28;20203;-81
2023/12/16 09:37:45;;;;;;;5.83;5.07;;;;;;;;;;5033263;28;20289;-80
2023/12/16 09:40:12;;;;;;;11.33;5.00;;;;;;;;;;5049678;28;20217;-82
2023/12/16 09:42:39;;;;;;;9.90;4.80;;;;;;;;;;5051195;28;20206;-82
2023/12/16 09:45:07;;;;;;;6.10;4.20;;;;;;;;;;5051041;28;20614;-82
2023/12/16 09:47:34;;;;;;;9.33;5.00;;;;;;;;;;5051462;28;20450;-82
2023/12/16 09:50:01;;;;;;;4.53;4.00;;;;;;;;;;5051231;28;20210;-82
2023/12/16 09:52:29;;;;;;;11.97;4.50;;;;;;;;;;5050730;28;20221;-82
2023/12/16 09:54:56;;;;;;;8.23;4.97;;;;;;;;;;5051186;28;20198;-82
2023/12/16 09:57:23;;;;;;;5.50;4.57;;;;;;;;;;5050504;28;20225;-82
2023/12/16 09:59:51;;;;;;;6.70;4.63;;;;;;;;;;5053604;28;20684;-80
2023/12/16 10:02:23;;;;;;;9.73;5.30;;;;;;;;;;5054493;28;20226;-80
2023/12/16 10:04:51;;;;;;;8.63;4.00;;;;;;;;;;5055332;28;20603;-81
2023/12/16 10:07:18;;;;;;;7.03;4.60;;;;;;;;;;5054985;28;20225;-81
2023/12/16 10:09:47;;;;;;;4.83;4.03;;;;;;;;;;5054011;28;20285;-81
2023/12/16 10:12:14;;;;;;;11.07;4.83;;;;;;;;;;5054022;28;20272;-82
2023/12/16 10:14:47;;;;;;;6.67;4.80;;;;;;;;;;5046415;28;20206;-82
2023/12/16 10:17:16;;;;;;;8.03;4.17;;;;;;;;;;5052953;28;20773;-82
2023/12/16 10:19:44;;;;;;;7.33;4.30;;;;;;;;;;5046914;28;20206;-82
2023/12/16 10:22:11;;;;;;;4.57;3.23;;;;;;;;;;5053550;28;20262;-82
2023/12/16 10:24:38;;;;;;;4.43;4.00;;;;;;;;;;5053976;28;20688;-83
2023/12/16 10:27:08;;;;;;;7.57;4.47;;;;;;;;;;5053564;28;20234;-83
2023/12/16 10:29:35;;;;;;;5.33;3.70;;;;;;;;;;5054746;28;20229;-83
2023/12/16 10:32:02;;;;;;;8.00;4.90;;;;;;;;;;5053621;28;20643;-83
2023/12/16 10:34:29;;;;;;;9.70;4.57;;;;;;;;;;5054569;28;20552;-83
2023/12/16 10:37:04;;;;;;;5.60;3.83;;;;;;;;;;5053412;28;20260;-83
2023/12/16 10:39:31;;;;;;;6.70;4.27;;;;;;;;;;5052913;28;20300;-82
2023/12/16 10:41:58;;;;;;;7.67;3.93;;;;;;;;;;5053700;28;20225;-82
2023/12/16 10:44:27;;;;;;;5.73;4.47;;;;;;;;;;5054069;28;20218;-80
2023/12/16 10:46:55;;;;;;;9.43;4.50;;;;;;;;;;5053273;28;20229;-82
2023/12/16 10:49:25;;;;;;;5.13;3.77;;;;;;;;;;5052049;28;20208;-82
2023/12/16 10:51:53;;;;;;;4.60;3.80;;;;;;;;;;5053123;28;20235;-82
2023/12/16 10:54:26;;;;;;;4.20;3.80;;;;;;;;;;5054242;28;20209;-82
2023/12/16 10:56:59;;;;;;;5.47;3.63;;;;;;;;;;5053508;28;20226;-83
2023/12/16 10:59:30;;;;;;;6.97;4.00;;;;;;;;;;5054312;28;20285;-83
2023/12/16 11:01:59;;;;;;;9.87;4.40;;;;;;;;;;5053085;28;20622;-84
2023/12/16 11:04:26;;;;;;;6.10;3.73;;;;;;;;;;5053236;28;20217;-83
2023/12/16 11:06:57;;;;;;;4.70;3.93;;;;;;;;;;5052947;28;20271;-83
2023/12/16 11:09:24;;;;;;;5.03;3.60;;;;;;;;;;5053169;28;20202;-83
2023/12/16 11:11:53;;;;;;;13.73;4.30;;;;;;;;;;5053314;28;20268;-82
2023/12/16 11:14:20;;;;;;;4.67;3.63;;;;;;;;;;5053884;28;20604;-82
2023/12/16 11:16:56;;;;;;;6.03;3.63;;;;;;;;;;5053264;28;20236;-82
2023/12/16 11:19:24;;;;;;;11.07;4.10;;;;;;;;;;5053648;28;20281;-83
2023/12/16 11:21:51;;;;;;;6.47;3.80;;;;;;;;;;5052223;28;20730;-83
2023/12/16 11:24:18;;;;;;;14.43;4.43;;;;;;;;;;5053672;28;20657;-83
2023/12/16 11:26:50;;;;;;;9.97;3.80;;;;;;;;;;5045215;28;20238;-83
2023/12/16 11:29:20;;;;;;;6.43;3.63;;;;;;;;;;5053807;28;20664;-81
2023/12/16 11:31:53;;;;;;;4.80;3.57;;;;;;;;;;5053401;28;20230;-81
2023/12/16 11:34:35;;;;;;;3.30;3.00;;;;;;;;;;5053191;28;20199;-82
2023/12/16 11:37:04;;;;;;;4.50;3.13;;;;;;;;;;5052578;28;20280;-82
2023/12/16 11:39:38;;;;;;;5.53;3.47;;;;;;;;;;5054960;28;20208;-81
2023/12/16 11:42:05;;;;;;;9.87;3.50;;;;;;;;;;5052261;28;20730;-83
2023/12/16 11:44:51;;;;;;;4.03;3.10;;;;;;;;;;5051955;28;20221;-83
2023/12/16 11:47:26;;;;;;;3.30;2.83;;;;;;;;;;5053573;28;20308;-82
2023/12/16 11:49:53;;;;;;;3.30;3.00;;;;;;;;;;5046928;28;20220;-83
2023/12/16 11:52:21;;;;;;;3.20;3.00;;;;;;;;;;5055597;28;20237;-82
2023/12/16 11:54:52;;;;;;;4.00;3.00;;;;;;;;;;5062940;28;20198;-82
2023/12/16 11:57:23;;;;;;;6.60;3.73;;;;;;;;;;5053301;28;20715;-84
2023/12/16 11:59:51;;;;;;;4.43;3.17;;;;;;;;;;5045906;28;20222;-81
2023/12/16 12:02:18;;;;;;;8.37;3.73;;;;;;;;;;5052410;28;20225;-82
2023/12/16 12:04:46;;;;;;;5.53;3.07;;;;;;;;;;5052348;28;20642;-81
2023/12/16 12:07:13;;;;;;;9.63;3.77;;;;;;;;;;5052190;28;20234;-83
2023/12/16 12:09:41;;;;;;;6.03;3.30;;;;;;;;;;5052579;28;20221;-82
2023/12/16 12:12:08;;;;;;;7.00;3.00;;;;;;;;;;5051862;28;20312;-82
2023/12/16 12:14:38;;;;;;;6.57;3.40;;;;;;;;;;5051844;28;20213;-83
2023/12/16 12:17:05;;;;;;;6.53;3.23;;;;;;;;;;5051662;28;20238;-83
2023/12/16 12:19:33;;;;;;;5.27;3.20;;;;;;;;;;5052072;28;20691;-85
2023/12/16 12:22:02;;;;;;;3.90;2.90;;;;;;;;;;5051151;28;20226;-85
2023/12/16 12:24:29;;;;;;;6.00;3.20;;;;;;;;;;5052002;28;20573;-85
2023/12/16 12:26:56;;;;;;;4.73;3.30;;;;;;;;;;5051503;28;20226;-84
2023/12/16 12:29:23;;;;;;;5.77;3.17;;;;;;;;;;5052109;28;20206;-84
2023/12/16 12:31:52;;;;;;;6.83;3.33;;;;;;;;;;5051511;28;20255;-83
2023/12/16 12:34:19;;;;;;;7.97;2.20;;;;;;;;;;5051889;28;20202;-83
2023/12/16 12:36:46;;;;;;;3.40;3.03;;;;;;;;;;5051222;28;20623;-84
2023/12/16 12:39:17;;;;;;;7.57;3.20;;;;;;;;;;5052233;28;20301;-83
2023/12/16 12:41:44;;;;;;;8.63;3.30;;;;;;;;;;5051383;28;20241;-83
2023/12/16 12:44:11;;;;;;;6.23;3.13;;;;;;;;;;5051497;28;20230;-84
2023/12/16 12:46:46;;;;;;;4.27;2.60;;;;;;;;;;5051045;28;20240;-83
2023/12/16 12:49:13;;;;;;;4.57;2.53;;;;;;;;;;5051949;28;20297;-83
2023/12/16 12:51:49;;;;;;;3.13;2.57;;;;;;;;;;5050728;28;20321;-83
2023/12/16 12:54:18;;;;;;;4.73;2.90;;;;;;;;;;5051480;28;20584;-83
2023/12/16 12:56:46;;;;;;;3.30;2.50;;;;;;;;;;5050910;28;20320;-83
2023/12/16 12:59:13;;;;;;;7.00;2.67;;;;;;;;;;5051661;28;20202;-85
2023/12/16 13:01:40;;;;;;;4.13;2.70;;;;;;;;;;5051321;28;20731;-85
2023/12/16 13:04:07;;;;;;;5.80;2.87;;;;;;;;;;5052461;28;20279;-84
2023/12/16 13:06:34;;;;;;;2.10;1.93;;;;;;;;;;5052188;28;20232;-82
2023/12/16 13:09:04;;;;;;;3.17;2.43;;;;;;;;;;5052416;28;20233;-81
2023/12/16 13:11:32;;;;;;;2.60;2.40;;;;;;;;;;5052009;28;20238;-82
2023/12/16 13:13:59;;;;;;;4.03;3.03;;;;;;;;;;5051114;28;20209;-81
2023/12/16 13:16:27;;;;;;;3.97;2.80;;;;;;;;;;5050909;28;20256;-80
2023/12/16 13:18:54;;;;;;;4.53;2.23;;;;;;;;;;5050962;28;20225;-81
2023/12/16 13:21:21;;;;;;;5.87;2.43;;;;;;;;;;5050553;28;20329;-81
2023/12/16 13:23:48;;;;;;;6.57;2.40;;;;;;;;;;5050639;28;20578;-81
2023/12/16 13:26:16;;;;;;;5.27;2.50;;;;;;;;;;5050714;28;20834;-81
2023/12/16 13:28:44;;;;;;;5.43;2.93;;;;;;;;;;5051185;28;20225;-81
2023/12/16 13:31:11;;;;;;;5.13;2.27;;;;;;;;;;5050485;28;20245;-81
2023/12/16 13:33:38;;;;;;;7.87;2.60;;;;;;;;;;5053589;28;20214;-81
2023/12/16 13:36:06;;;;;;;4.20;2.20;;;;;;;;;;5054935;28;20232;-81
2023/12/16 13:38:33;;;;;;;8.13;2.53;;;;;;;;;;5055077;28;20229;-81
2023/12/16 13:41:00;;;;;;;7.07;3.03;;;;;;;;;;5054293;28;20229;-82
2023/12/16 13:43:27;;;;;;;4.80;3.07;;;;;;;;;;5055191;28;20202;-81
2023/12/16 13:45:55;;;;;;;4.87;2.57;;;;;;;;;;5053921;28;20237;-81
2023/12/16 13:48:22;;;;;;;6.50;2.87;;;;;;;;;;5054896;28;20249;-82
2023/12/16 13:50:50;;;;;;;6.47;2.70;;;;;;;;;;5054270;28;20275;-82
2023/12/16 13:53:17;;;;;;;4.47;2.60;;;;;;;;;;5045385;28;20264;-82
2023/12/16 13:55:44;;;;;;;3.93;2.30;;;;;;;;;;5054512;28;20601;-82
2023/12/16 13:58:11;;;;;;;7.73;2.83;;;;;;;;;;5055339;28;20225;-82
2023/12/16 14:00:38;;;;;;;5.03;2.20;;;;;;;;;;5054408;28;20234;-83
2023/12/16 14:03:06;;;;;;;6.20;3.43;;;;;;;;;;5054654;28;20202;-83
2023/12/16 14:05:33;;;;;;;4.43;2.50;;;;;;;;;;5054436;28;20325;-83
2023/12/16 14:08:00;;;;;;;5.77;2.47;;;;;;;;;;5054895;28;20221;-84
2023/12/16 14:10:27;;;;;;;6.77;3.93;;;;;;;;;;5054304;28;20233;-84
2023/12/16 14:12:54;;;;;;;7.60;3.10;;;;;;;;;;5054110;28;20221;-83
2023/12/16 14:15:21;;;;;;;6.17;3.10;;;;;;;;;;5054269;28;20263;-83
2023/12/16 14:17:48;;;;;;;4.30;2.87;;;;;;;;;;5054207;28;20283;-83
2023/12/16 14:20:17;;;;;;;5.40;3.37;;;;;;;;;;5053848;28;20206;-83
2023/12/16 14:22:44;;;;;;;6.27;3.00;;;;;;;;;;5054085;28;20214;-83
2023/12/16 14:25:13;;;;;;;5.27;3.20;;;;;;;;;;5054094;28;20230;-83
2023/12/16 14:27:40;;;;;;;3.70;2.80;;;;;;;;;;5054585;28;20232;-83
2023/12/16 14:30:08;;;;;;;3.83;2.90;;;;;;;;;;5054156;28;20241;-83
2023/12/16 14:32:35;;;;;;;6.30;2.77;;;;;;;;;;5054541;28;20210;-85
2023/12/16 14:35:04;;;;;;;5.73;2.87;;;;;;;;;;5053594;28;20202;-83
2023/12/16 14:37:32;;;;;;;5.13;2.80;;;;;;;;;;5054434;28;20230;-83